createdAt,value
2018-12-27T00:00:22.219Z,974.83
2018-12-27T00:01:22.149Z,974.82
2018-12-27T00:02:22.091Z,974.83
2018-12-27T00:03:22.007Z,974.80
2018-12-27T00:04:21.940Z,974.74
2018-12-27T00:05:21.867Z,974.75
2018-12-27T00:06:21.798Z,974.79
2018-12-27T00:07:21.728Z,974.78
2018-12-27T00:08:21.658Z,974.78
2018-12-27T00:09:21.592Z,974.78
2018-12-27T00:10:21.522Z,974.77
2018-12-27T00:11:21.446Z,974.76
2018-12-27T00:12:21.386Z,974.80
2018-12-27T00:13:21.308Z,974.73
2018-12-27T00:14:21.238Z,974.74
2018-12-27T00:15:21.168Z,974.66
2018-12-27T00:16:21.100Z,974.73
2018-12-27T00:17:21.027Z,974.72
2018-12-27T00:18:20.958Z,974.73
2018-12-27T00:19:20.886Z,974.70
2018-12-27T00:20:20.817Z,974.73
2018-12-27T00:21:20.746Z,974.72
2018-12-27T00:22:20.674Z,974.69
2018-12-27T00:23:20.605Z,974.67
2018-12-27T00:24:20.536Z,974.69
2018-12-27T00:25:20.609Z,974.69
2018-12-27T00:26:20.394Z,974.69
2018-12-27T00:27:20.325Z,974.71
2018-12-27T00:28:20.253Z,974.66
2018-12-27T00:29:20.183Z,974.66
2018-12-27T00:30:20.114Z,974.64
2018-12-27T00:31:20.043Z,974.63
2018-12-27T00:32:19.973Z,974.59
2018-12-27T00:33:19.904Z,974.63
2018-12-27T00:34:19.833Z,974.64
2018-12-27T00:35:19.761Z,974.65
2018-12-27T00:36:19.690Z,974.65
2018-12-27T00:37:19.622Z,974.66
2018-12-27T00:38:19.551Z,974.66
2018-12-27T00:39:19.481Z,974.65
2018-12-27T00:40:19.409Z,974.58
2018-12-27T00:41:19.341Z,974.59
2018-12-27T00:42:19.271Z,974.54
2018-12-27T00:43:19.199Z,974.57
2018-12-27T00:44:19.129Z,974.56
2018-12-27T00:45:19.059Z,974.54
2018-12-27T00:46:18.991Z,974.55
2018-12-27T00:47:18.919Z,974.52
2018-12-27T00:48:18.850Z,974.57
2018-12-27T00:49:18.779Z,974.53
2018-12-27T00:50:18.721Z,974.56
2018-12-27T00:51:18.640Z,974.53
2018-12-27T00:52:18.570Z,974.52
2018-12-27T00:53:18.499Z,974.49
2018-12-27T00:54:18.429Z,974.48
2018-12-27T00:55:18.441Z,974.47
2018-12-27T00:56:18.308Z,974.50
2018-12-27T00:57:18.218Z,974.47
2018-12-27T00:58:18.151Z,974.46
2018-12-27T00:59:18.076Z,974.42
2018-12-27T01:00:18.009Z,974.49
2018-12-27T01:01:18.004Z,974.47
2018-12-27T01:02:17.868Z,974.47
2018-12-27T01:03:17.801Z,974.44
2018-12-27T01:04:17.722Z,974.45
2018-12-27T01:05:17.658Z,974.44
2018-12-27T01:06:17.587Z,974.48
2018-12-27T01:07:17.515Z,974.46
2018-12-27T01:08:17.443Z,974.47
2018-12-27T01:09:17.419Z,974.49
2018-12-27T01:10:17.306Z,974.50
2018-12-27T01:11:17.237Z,974.52
2018-12-27T01:12:17.166Z,974.54
2018-12-27T01:13:17.094Z,974.59
2018-12-27T01:14:17.023Z,974.54
2018-12-27T01:15:16.954Z,974.54
2018-12-27T01:16:16.886Z,974.54
2018-12-27T01:17:16.815Z,974.55
2018-12-27T01:18:16.746Z,974.51
2018-12-27T01:19:16.674Z,974.51
2018-12-27T01:20:16.604Z,974.47
2018-12-27T01:21:16.531Z,974.49
2018-12-27T01:22:16.463Z,974.49
2018-12-27T01:23:16.390Z,974.52
2018-12-27T01:24:16.322Z,974.49
2018-12-27T01:25:16.252Z,974.51
2018-12-27T01:26:16.184Z,974.50
2018-12-27T01:27:16.110Z,974.50
2018-12-27T01:28:16.042Z,974.51
2018-12-27T01:29:15.968Z,974.51
2018-12-27T01:30:15.905Z,974.51
2018-12-27T01:31:15.847Z,974.54
2018-12-27T01:32:15.758Z,974.51
2018-12-27T01:33:18.905Z,974.56
2018-12-27T01:34:15.626Z,974.56
2018-12-27T01:35:15.550Z,974.56
2018-12-27T01:36:15.481Z,974.56
2018-12-27T01:37:15.410Z,974.56
2018-12-27T01:38:15.340Z,974.54
2018-12-27T01:39:15.270Z,974.59
2018-12-27T01:40:15.198Z,974.57
2018-12-27T01:41:15.132Z,974.56
2018-12-27T01:42:15.061Z,974.55
2018-12-27T01:43:14.990Z,974.49
2018-12-27T01:44:14.920Z,974.55
2018-12-27T01:45:14.849Z,974.51
2018-12-27T01:46:14.780Z,974.55
2018-12-27T01:47:14.710Z,974.47
2018-12-27T01:48:14.636Z,974.45
2018-12-27T01:49:14.568Z,974.48
2018-12-27T01:50:14.502Z,974.46
2018-12-27T01:51:14.430Z,974.48
2018-12-27T01:52:14.358Z,974.45
2018-12-27T01:53:14.288Z,974.44
2018-12-27T01:54:14.219Z,974.44
2018-12-27T01:55:14.147Z,974.40
2018-12-27T01:56:14.077Z,974.35
2018-12-27T01:57:14.007Z,974.35
2018-12-27T01:58:13.939Z,974.34
2018-12-27T01:59:13.923Z,974.26
2018-12-27T02:00:13.796Z,974.28
2018-12-27T02:01:13.727Z,974.28
2018-12-27T02:02:13.660Z,974.29
2018-12-27T02:03:13.586Z,974.29
2018-12-27T02:04:13.516Z,974.26
2018-12-27T02:05:13.448Z,974.24
2018-12-27T02:06:13.378Z,974.25
2018-12-27T02:07:13.312Z,974.26
2018-12-27T02:08:13.236Z,974.26
2018-12-27T02:09:13.167Z,974.28
2018-12-27T02:10:13.098Z,974.25
2018-12-27T02:11:13.044Z,974.24
2018-12-27T02:12:12.954Z,974.25
2018-12-27T02:13:12.888Z,974.19
2018-12-27T02:14:12.819Z,974.16
2018-12-27T02:15:12.746Z,974.15
2018-12-27T02:16:12.677Z,974.16
2018-12-27T02:17:12.610Z,974.15
2018-12-27T02:18:12.536Z,974.12
2018-12-27T02:19:12.464Z,974.10
2018-12-27T02:20:12.395Z,974.08
2018-12-27T02:21:12.325Z,974.07
2018-12-27T02:22:12.256Z,974.04
2018-12-27T02:23:12.184Z,974.03
2018-12-27T02:24:12.115Z,974.03
2018-12-27T02:25:12.044Z,974.04
2018-12-27T02:26:11.975Z,973.98
2018-12-27T02:27:11.904Z,973.97
2018-12-27T02:28:11.835Z,973.98
2018-12-27T02:29:11.764Z,973.97
2018-12-27T02:30:11.702Z,973.93
2018-12-27T02:31:11.624Z,973.96
2018-12-27T02:32:11.662Z,973.97
2018-12-27T02:33:11.486Z,973.97
2018-12-27T02:34:11.415Z,973.91
2018-12-27T02:35:11.348Z,973.93
2018-12-27T02:36:11.275Z,973.92
2018-12-27T02:37:11.206Z,973.90
2018-12-27T02:38:11.136Z,973.88
2018-12-27T02:39:11.067Z,973.91
2018-12-27T02:40:10.994Z,973.91
2018-12-27T02:41:10.927Z,973.90
2018-12-27T02:42:10.856Z,973.86
2018-12-27T02:43:10.788Z,973.84
2018-12-27T02:44:10.714Z,973.82
2018-12-27T02:45:10.646Z,973.80
2018-12-27T02:46:10.577Z,973.78
2018-12-27T02:47:10.503Z,973.76
2018-12-27T02:48:10.438Z,973.76
2018-12-27T02:49:10.363Z,973.66
2018-12-27T02:50:10.301Z,973.69
2018-12-27T02:51:10.225Z,973.67
2018-12-27T02:52:10.156Z,973.73
2018-12-27T02:53:10.087Z,973.66
2018-12-27T02:54:10.018Z,973.74
2018-12-27T02:55:09.947Z,973.73
2018-12-27T02:56:09.874Z,973.74
2018-12-27T02:57:09.823Z,973.73
2018-12-27T02:58:09.743Z,973.76
2018-12-27T02:59:09.665Z,973.70
2018-12-27T03:00:09.592Z,973.72
2018-12-27T03:01:09.527Z,973.65
2018-12-27T03:02:09.454Z,973.63
2018-12-27T03:03:09.383Z,973.65
2018-12-27T03:04:09.314Z,973.63
2018-12-27T03:05:09.248Z,973.64
2018-12-27T03:06:09.174Z,973.64
2018-12-27T03:07:09.102Z,973.61
2018-12-27T03:08:09.033Z,973.59
2018-12-27T03:09:08.965Z,973.56
2018-12-27T03:10:08.896Z,973.51
2018-12-27T03:11:08.838Z,973.43
2018-12-27T03:12:08.753Z,973.40
2018-12-27T03:13:08.682Z,973.38
2018-12-27T03:14:08.612Z,973.35
2018-12-27T03:15:08.543Z,973.31
2018-12-27T03:16:08.473Z,973.37
2018-12-27T03:17:08.404Z,973.35
2018-12-27T03:18:08.338Z,973.37
2018-12-27T03:19:08.271Z,973.38
2018-12-27T03:20:08.191Z,973.35
2018-12-27T03:21:08.124Z,973.32
2018-12-27T03:22:08.050Z,973.31
2018-12-27T03:23:07.983Z,973.28
2018-12-27T03:24:07.915Z,973.29
2018-12-27T03:25:07.840Z,973.28
2018-12-27T03:26:07.771Z,973.30
2018-12-27T03:27:07.701Z,973.27
2018-12-27T03:28:07.711Z,973.27
2018-12-27T03:29:07.562Z,973.26
2018-12-27T03:30:07.496Z,973.27
2018-12-27T03:31:07.427Z,973.24
2018-12-27T03:32:07.364Z,973.28
2018-12-27T03:33:07.281Z,973.27
2018-12-27T03:34:07.227Z,973.26
2018-12-27T03:35:07.138Z,973.20
2018-12-27T03:36:07.071Z,973.19
2018-12-27T03:37:07.000Z,973.20
2018-12-27T03:38:06.934Z,973.22
2018-12-27T03:39:06.860Z,973.25
2018-12-27T03:40:06.789Z,973.26
2018-12-27T03:41:06.724Z,973.25
2018-12-27T03:42:06.649Z,973.27
2018-12-27T03:43:06.578Z,973.26
2018-12-27T03:44:06.506Z,973.23
2018-12-27T03:45:06.438Z,973.22
2018-12-27T03:46:06.369Z,973.22
2018-12-27T03:47:06.296Z,973.23
2018-12-27T03:48:06.226Z,973.21
2018-12-27T03:49:06.157Z,973.22
2018-12-27T03:50:06.086Z,973.19
2018-12-27T03:51:06.016Z,973.23
2018-12-27T03:52:05.949Z,973.25
2018-12-27T03:53:05.879Z,973.22
2018-12-27T03:54:05.809Z,973.16
2018-12-27T03:55:05.731Z,973.15
2018-12-27T03:56:05.663Z,973.17
2018-12-27T03:57:05.593Z,973.20
2018-12-27T03:58:05.524Z,973.24
2018-12-27T03:59:05.451Z,973.23
2018-12-27T04:00:05.383Z,973.20
2018-12-27T04:01:05.329Z,973.18
2018-12-27T04:02:05.240Z,973.17
2018-12-27T04:03:05.168Z,973.13
2018-12-27T04:04:05.097Z,973.16
2018-12-27T04:05:05.031Z,973.17
2018-12-27T04:06:04.957Z,973.16
2018-12-27T04:07:04.889Z,973.16
2018-12-27T04:08:04.821Z,973.14
2018-12-27T04:09:04.747Z,973.12
2018-12-27T04:10:04.675Z,973.11
2018-12-27T04:11:04.604Z,973.11
2018-12-27T04:12:04.534Z,973.13
2018-12-27T04:13:04.463Z,973.13
2018-12-27T04:14:04.398Z,973.12
2018-12-27T04:15:04.320Z,973.13
2018-12-27T04:16:04.252Z,973.12
2018-12-27T04:17:04.182Z,973.10
2018-12-27T04:18:04.112Z,973.06
2018-12-27T04:19:04.040Z,973.10
2018-12-27T04:20:03.969Z,973.05
2018-12-27T04:21:03.897Z,973.06
2018-12-27T04:22:03.829Z,973.07
2018-12-27T04:23:03.756Z,973.09
2018-12-27T04:24:03.691Z,973.10
2018-12-27T04:25:03.624Z,973.07
2018-12-27T04:26:03.548Z,973.06
2018-12-27T04:27:03.509Z,972.99
2018-12-27T04:28:03.404Z,973.04
2018-12-27T04:29:03.336Z,973.06
2018-12-27T04:30:03.264Z,973.05
2018-12-27T04:31:03.197Z,973.04
2018-12-27T04:32:03.129Z,973.00
2018-12-27T04:33:03.052Z,972.98
2018-12-27T04:34:09.468Z,972.96
2018-12-27T04:35:02.911Z,972.98
2018-12-27T04:36:02.841Z,972.98
2018-12-27T04:37:02.772Z,972.99
2018-12-27T04:38:02.704Z,972.99
2018-12-27T04:39:02.629Z,973.04
2018-12-27T04:40:02.561Z,973.01
2018-12-27T04:41:02.489Z,973.00
2018-12-27T04:42:02.420Z,972.95
2018-12-27T04:43:02.349Z,972.94
2018-12-27T04:44:02.274Z,972.96
2018-12-27T04:45:02.207Z,972.97
2018-12-27T04:46:02.135Z,972.95
2018-12-27T04:47:02.066Z,973.00
2018-12-27T04:48:01.995Z,973.07
2018-12-27T04:49:01.933Z,973.00
2018-12-27T04:50:01.864Z,973.01
2018-12-27T04:51:01.781Z,973.04
2018-12-27T04:52:01.711Z,973.00
2018-12-27T04:53:01.641Z,972.99
2018-12-27T04:54:01.570Z,972.99
2018-12-27T04:55:01.504Z,972.99
2018-12-27T04:56:01.430Z,972.97
2018-12-27T04:57:01.359Z,973.00
2018-12-27T04:58:01.289Z,972.99
2018-12-27T04:59:01.218Z,972.97
2018-12-27T05:00:01.148Z,972.99
2018-12-27T05:01:01.081Z,972.97
2018-12-27T05:02:01.005Z,972.99
2018-12-27T05:03:00.938Z,973.01
2018-12-27T05:04:00.866Z,973.00
2018-12-27T05:05:00.796Z,973.02
2018-12-27T05:06:00.724Z,972.97
2018-12-27T05:07:00.652Z,972.99
2018-12-27T05:08:00.623Z,972.97
2018-12-27T05:09:00.510Z,972.95
2018-12-27T05:10:00.454Z,972.92
2018-12-27T05:11:00.370Z,972.94
2018-12-27T05:12:00.301Z,972.95
2018-12-27T05:13:00.228Z,972.96
2018-12-27T05:14:00.161Z,972.97
2018-12-27T05:15:00.179Z,972.96
2018-12-27T05:16:00.018Z,972.98
2018-12-27T05:16:59.950Z,973.00
2018-12-27T05:17:59.879Z,972.99
2018-12-27T05:18:59.806Z,972.96
2018-12-27T05:19:59.741Z,972.95
2018-12-27T05:20:59.672Z,972.95
2018-12-27T05:21:59.597Z,973.00
2018-12-27T05:22:59.527Z,972.98
2018-12-27T05:23:59.457Z,973.00
2018-12-27T05:24:59.387Z,972.94
2018-12-27T05:25:59.318Z,973.00
2018-12-27T05:26:59.246Z,972.99
2018-12-27T05:27:59.172Z,972.97
2018-12-27T05:28:59.103Z,972.97
2018-12-27T05:29:59.033Z,972.94
2018-12-27T05:30:58.963Z,972.97
2018-12-27T05:31:58.892Z,973.01
2018-12-27T05:32:58.821Z,972.98
2018-12-27T05:33:58.750Z,973.00
2018-12-27T05:34:58.682Z,973.03
2018-12-27T05:35:58.613Z,973.00
2018-12-27T05:36:58.539Z,973.07
2018-12-27T05:37:58.469Z,973.08
2018-12-27T05:38:58.399Z,973.07
2018-12-27T05:39:58.330Z,973.11
2018-12-27T05:40:58.259Z,973.07
2018-12-27T05:41:58.188Z,973.08
2018-12-27T05:42:58.117Z,973.10
2018-12-27T05:43:58.052Z,973.08
2018-12-27T05:44:58.014Z,973.12
2018-12-27T05:45:57.906Z,973.11
2018-12-27T05:46:57.834Z,973.11
2018-12-27T05:47:57.763Z,973.06
2018-12-27T05:48:57.695Z,973.07
2018-12-27T05:49:57.625Z,973.08
2018-12-27T05:50:57.598Z,973.09
2018-12-27T05:51:57.482Z,973.04
2018-12-27T05:52:57.430Z,973.07
2018-12-27T05:53:57.350Z,973.09
2018-12-27T05:54:57.271Z,973.10
2018-12-27T05:55:57.200Z,973.15
2018-12-27T05:56:57.131Z,973.14
2018-12-27T05:57:57.060Z,973.17
2018-12-27T05:58:56.986Z,973.14
2018-12-27T05:59:56.919Z,973.17
2018-12-27T06:00:56.850Z,973.21
2018-12-27T06:01:56.774Z,973.21
2018-12-27T06:02:56.707Z,973.15
2018-12-27T06:03:56.636Z,973.16
2018-12-27T06:04:56.564Z,973.15
2018-12-27T06:05:56.496Z,973.18
2018-12-27T06:06:56.425Z,973.16
2018-12-27T06:07:56.354Z,973.21
2018-12-27T06:08:56.303Z,973.20
2018-12-27T06:09:56.219Z,973.22
2018-12-27T06:10:56.146Z,973.22
2018-12-27T06:11:56.070Z,973.23
2018-12-27T06:12:56.002Z,973.21
2018-12-27T06:13:55.933Z,973.22
2018-12-27T06:14:55.860Z,973.21
2018-12-27T06:15:55.794Z,973.28
2018-12-27T06:16:55.719Z,973.23
2018-12-27T06:17:55.648Z,973.26
2018-12-27T06:18:55.578Z,973.26
2018-12-27T06:19:55.509Z,973.25
2018-12-27T06:20:55.438Z,973.25
2018-12-27T06:21:55.366Z,973.22
2018-12-27T06:22:55.296Z,973.20
2018-12-27T06:23:55.226Z,973.19
2018-12-27T06:24:56.154Z,973.22
2018-12-27T06:25:55.084Z,973.20
2018-12-27T06:26:55.013Z,973.18
2018-12-27T06:27:54.944Z,973.18
2018-12-27T06:28:54.872Z,973.13
2018-12-27T06:29:54.801Z,973.16
2018-12-27T06:30:54.730Z,973.17
2018-12-27T06:31:54.662Z,973.15
2018-12-27T06:32:54.589Z,973.17
2018-12-27T06:33:54.519Z,973.15
2018-12-27T06:34:54.460Z,973.12
2018-12-27T06:35:54.382Z,973.14
2018-12-27T06:36:54.308Z,973.14
2018-12-27T06:37:54.238Z,973.11
2018-12-27T06:38:54.166Z,973.15
2018-12-27T06:39:54.093Z,973.14
2018-12-27T06:40:54.026Z,973.15
2018-12-27T06:41:53.969Z,973.13
2018-12-27T06:42:53.884Z,973.13
2018-12-27T06:43:53.815Z,973.13
2018-12-27T06:44:53.742Z,973.14
2018-12-27T06:45:53.672Z,973.12
2018-12-27T06:46:53.603Z,973.14
2018-12-27T06:47:53.531Z,973.14
2018-12-27T06:48:53.461Z,973.11
2018-12-27T06:49:53.397Z,973.12
2018-12-27T06:50:53.319Z,973.12
2018-12-27T06:51:53.247Z,973.14
2018-12-27T06:52:53.181Z,973.16
2018-12-27T06:53:53.107Z,973.13
2018-12-27T06:54:53.036Z,973.15
2018-12-27T06:55:52.966Z,973.14
2018-12-27T06:56:52.897Z,973.17
2018-12-27T06:57:52.826Z,973.12
2018-12-27T06:58:52.756Z,973.15
2018-12-27T06:59:52.683Z,973.14
2018-12-27T07:00:52.613Z,973.17
2018-12-27T07:01:52.546Z,973.16
2018-12-27T07:02:52.469Z,973.15
2018-12-27T07:03:52.403Z,973.18
2018-12-27T07:04:52.331Z,973.17
2018-12-27T07:05:52.262Z,973.19
2018-12-27T07:06:52.189Z,973.22
2018-12-27T07:07:52.118Z,973.19
2018-12-27T07:08:52.048Z,973.22
2018-12-27T07:09:51.978Z,973.20
2018-12-27T07:10:51.909Z,973.20
2018-12-27T07:11:51.838Z,973.20
2018-12-27T07:12:51.767Z,973.23
2018-12-27T07:13:51.701Z,973.28
2018-12-27T07:14:51.626Z,973.25
2018-12-27T07:15:51.559Z,973.25
2018-12-27T07:16:51.484Z,973.26
2018-12-27T07:17:51.413Z,973.25
2018-12-27T07:18:51.343Z,973.29
2018-12-27T07:19:51.273Z,973.27
2018-12-27T07:20:51.205Z,973.33
2018-12-27T07:21:51.133Z,973.29
2018-12-27T07:22:51.061Z,973.31
2018-12-27T07:23:50.991Z,973.29
2018-12-27T07:24:50.922Z,973.29
2018-12-27T07:25:50.849Z,973.25
2018-12-27T07:26:50.779Z,973.24
2018-12-27T07:27:50.709Z,973.22
2018-12-27T07:28:50.642Z,973.20
2018-12-27T07:29:50.568Z,973.25
2018-12-27T07:30:50.496Z,973.24
2018-12-27T07:31:50.427Z,973.19
2018-12-27T07:32:50.355Z,973.17
2018-12-27T07:33:50.291Z,973.13
2018-12-27T07:34:56.415Z,973.13
2018-12-27T07:35:50.143Z,973.12
2018-12-27T07:36:50.075Z,973.16
2018-12-27T07:37:50.004Z,973.18
2018-12-27T07:38:49.935Z,973.18
2018-12-27T07:39:49.863Z,973.20
2018-12-27T07:40:49.795Z,973.20
2018-12-27T07:41:49.723Z,973.19
2018-12-27T07:42:49.652Z,973.18
2018-12-27T07:43:49.580Z,973.18
2018-12-27T07:44:49.511Z,973.20
2018-12-27T07:45:49.440Z,973.21
2018-12-27T07:46:49.370Z,973.18
2018-12-27T07:47:49.300Z,973.25
2018-12-27T07:48:49.229Z,973.24
2018-12-27T07:49:49.160Z,973.22
2018-12-27T07:50:49.087Z,973.22
2018-12-27T07:51:49.017Z,973.19
2018-12-27T07:52:48.943Z,973.20
2018-12-27T07:53:48.875Z,973.19
2018-12-27T07:54:48.806Z,973.16
2018-12-27T07:55:48.735Z,973.12
2018-12-27T07:56:48.664Z,973.14
2018-12-27T07:57:48.607Z,973.12
2018-12-27T07:58:48.522Z,973.14
2018-12-27T07:59:48.463Z,973.13
2018-12-27T08:00:48.382Z,973.13
2018-12-27T08:01:48.314Z,973.10
2018-12-27T08:02:48.244Z,973.06
2018-12-27T08:03:48.172Z,973.05
2018-12-27T08:04:48.101Z,973.09
2018-12-27T08:05:48.035Z,973.07
2018-12-27T08:06:47.962Z,973.05
2018-12-27T08:07:47.893Z,973.05
2018-12-27T08:08:47.872Z,973.04
2018-12-27T08:09:47.753Z,973.05
2018-12-27T08:10:47.679Z,973.01
2018-12-27T08:11:47.618Z,973.06
2018-12-27T08:12:47.545Z,973.04
2018-12-27T08:13:47.471Z,973.04
2018-12-27T08:14:47.401Z,973.03
2018-12-27T08:15:47.328Z,973.03
2018-12-27T08:16:47.261Z,973.03
2018-12-27T08:17:47.189Z,973.03
2018-12-27T08:18:47.122Z,973.05
2018-12-27T08:19:47.049Z,973.00
2018-12-27T08:20:46.982Z,972.99
2018-12-27T08:21:46.909Z,973.07
2018-12-27T08:22:46.845Z,973.05
2018-12-27T08:23:46.772Z,973.06
2018-12-27T08:24:46.699Z,973.07
2018-12-27T08:25:46.631Z,973.09
2018-12-27T08:26:46.559Z,973.06
2018-12-27T08:27:46.491Z,973.07
2018-12-27T08:28:46.418Z,973.01
2018-12-27T08:29:46.350Z,973.01
2018-12-27T08:30:46.280Z,973.07
2018-12-27T08:31:46.209Z,973.07
2018-12-27T08:32:46.160Z,973.11
2018-12-27T08:33:46.070Z,973.07
2018-12-27T08:34:46.003Z,973.08
2018-12-27T08:35:45.930Z,973.09
2018-12-27T08:36:45.861Z,973.07
2018-12-27T08:37:45.791Z,973.08
2018-12-27T08:38:45.720Z,973.08
2018-12-27T08:39:45.651Z,973.08
2018-12-27T08:40:45.581Z,973.09
2018-12-27T08:41:45.512Z,973.06
2018-12-27T08:42:45.441Z,973.08
2018-12-27T08:43:45.372Z,973.06
2018-12-27T08:44:45.300Z,973.06
2018-12-27T08:45:45.231Z,973.06
2018-12-27T08:46:45.160Z,973.05
2018-12-27T08:47:45.091Z,973.04
2018-12-27T08:48:45.022Z,973.02
2018-12-27T08:49:44.954Z,973.03
2018-12-27T08:50:44.895Z,973.03
2018-12-27T08:51:44.814Z,973.03
2018-12-27T08:52:44.742Z,973.02
2018-12-27T08:53:44.675Z,973.03
2018-12-27T08:54:44.602Z,972.98
2018-12-27T08:55:44.535Z,972.97
2018-12-27T08:56:44.468Z,972.95
2018-12-27T08:57:44.395Z,972.99
2018-12-27T08:58:44.326Z,972.95
2018-12-27T08:59:44.256Z,972.98
2018-12-27T09:00:44.184Z,972.97
2018-12-27T09:01:44.116Z,972.98
2018-12-27T09:02:44.045Z,973.02
2018-12-27T09:03:43.977Z,972.99
2018-12-27T09:04:43.908Z,973.03
2018-12-27T09:05:43.837Z,972.99
2018-12-27T09:06:43.766Z,972.97
2018-12-27T09:07:43.697Z,972.98
2018-12-27T09:08:43.639Z,972.97
2018-12-27T09:09:43.559Z,972.97
2018-12-27T09:10:43.489Z,972.91
2018-12-27T09:11:43.419Z,972.91
2018-12-27T09:12:43.351Z,972.91
2018-12-27T09:13:43.279Z,972.92
2018-12-27T09:14:43.209Z,972.91
2018-12-27T09:15:43.140Z,972.98
2018-12-27T09:16:43.072Z,973.02
2018-12-27T09:17:43.004Z,973.01
2018-12-27T09:18:42.930Z,972.99
2018-12-27T09:19:42.860Z,972.92
2018-12-27T09:20:42.790Z,972.93
2018-12-27T09:21:42.723Z,972.96
2018-12-27T09:22:42.651Z,972.96
2018-12-27T09:23:42.580Z,972.94
2018-12-27T09:24:42.514Z,972.93
2018-12-27T09:25:42.445Z,972.92
2018-12-27T09:26:42.372Z,972.91
2018-12-27T09:27:42.305Z,972.87
2018-12-27T09:28:42.234Z,972.88
2018-12-27T09:29:42.164Z,972.91
2018-12-27T09:30:42.094Z,972.90
2018-12-27T09:31:42.026Z,972.92
2018-12-27T09:32:41.958Z,972.89
2018-12-27T09:33:41.885Z,972.89
2018-12-27T09:34:41.815Z,972.88
2018-12-27T09:35:41.748Z,972.92
2018-12-27T09:36:41.682Z,972.90
2018-12-27T09:37:41.611Z,972.88
2018-12-27T09:38:41.543Z,972.90
2018-12-27T09:39:41.469Z,972.91
2018-12-27T09:40:41.400Z,972.85
2018-12-27T09:41:41.331Z,972.84
2018-12-27T09:42:41.260Z,972.85
2018-12-27T09:43:41.193Z,972.86
2018-12-27T09:44:41.122Z,972.91
2018-12-27T09:45:41.104Z,972.92
2018-12-27T09:46:40.982Z,972.91
2018-12-27T09:47:40.913Z,972.93
2018-12-27T09:48:40.846Z,972.89
2018-12-27T09:49:40.776Z,972.84
2018-12-27T09:50:40.705Z,972.82
2018-12-27T09:51:40.636Z,972.81
2018-12-27T09:52:40.568Z,972.81
2018-12-27T09:53:40.498Z,972.80
2018-12-27T09:54:40.428Z,972.82
2018-12-27T09:55:40.359Z,972.81
2018-12-27T09:56:40.289Z,972.82
2018-12-27T09:57:40.221Z,972.84
2018-12-27T09:58:40.152Z,972.85
2018-12-27T09:59:40.082Z,972.79
2018-12-27T10:00:40.013Z,972.79
2018-12-27T10:01:39.948Z,972.77
2018-12-27T10:02:39.875Z,972.76
2018-12-27T10:03:39.804Z,972.78
2018-12-27T10:04:39.736Z,972.77
2018-12-27T10:05:39.668Z,972.79
2018-12-27T10:06:39.602Z,972.78
2018-12-27T10:07:39.527Z,972.83
2018-12-27T10:08:39.459Z,972.84
2018-12-27T10:09:39.390Z,972.81
2018-12-27T10:10:39.320Z,972.79
2018-12-27T10:11:39.252Z,972.78
2018-12-27T10:12:39.184Z,972.74
2018-12-27T10:13:39.114Z,972.75
2018-12-27T10:14:39.044Z,972.74
2018-12-27T10:15:38.976Z,972.76
2018-12-27T10:16:38.909Z,972.76
2018-12-27T10:17:38.836Z,972.78
2018-12-27T10:18:38.766Z,972.76
2018-12-27T10:19:38.700Z,972.75
2018-12-27T10:20:38.636Z,972.71
2018-12-27T10:21:38.559Z,972.75
2018-12-27T10:22:38.513Z,972.71
2018-12-27T10:23:38.422Z,972.64
2018-12-27T10:24:38.351Z,972.56
2018-12-27T10:25:38.284Z,972.53
2018-12-27T10:26:38.214Z,972.47
2018-12-27T10:27:38.144Z,972.44
2018-12-27T10:28:38.077Z,972.46
2018-12-27T10:29:38.009Z,972.48
2018-12-27T10:30:37.938Z,972.47
2018-12-27T10:31:37.869Z,972.46
2018-12-27T10:32:37.799Z,972.47
2018-12-27T10:33:37.731Z,972.46
2018-12-27T10:34:37.661Z,972.40
2018-12-27T10:35:41.083Z,972.33
2018-12-27T10:36:37.522Z,972.32
2018-12-27T10:37:37.453Z,972.31
2018-12-27T10:38:37.384Z,972.25
2018-12-27T10:39:37.313Z,972.27
2018-12-27T10:40:37.258Z,972.24
2018-12-27T10:41:37.175Z,972.18
2018-12-27T10:42:37.105Z,972.25
2018-12-27T10:43:37.041Z,972.26
2018-12-27T10:44:36.971Z,972.25
2018-12-27T10:45:36.899Z,972.22
2018-12-27T10:46:36.832Z,972.20
2018-12-27T10:47:36.760Z,972.20
2018-12-27T10:48:36.691Z,972.20
2018-12-27T10:49:36.621Z,972.16
2018-12-27T10:50:36.549Z,972.19
2018-12-27T10:51:36.482Z,972.14
2018-12-27T10:52:36.413Z,972.10
2018-12-27T10:53:36.343Z,972.05
2018-12-27T10:54:36.275Z,972.03
2018-12-27T10:55:36.205Z,972.04
2018-12-27T10:56:36.136Z,972.02
2018-12-27T10:57:36.068Z,972.02
2018-12-27T10:58:35.999Z,972.03
2018-12-27T10:59:35.930Z,972.00
2018-12-27T11:00:35.862Z,971.96
2018-12-27T11:01:35.790Z,971.90
2018-12-27T11:02:35.724Z,971.86
2018-12-27T11:03:35.665Z,971.83
2018-12-27T11:04:35.583Z,971.80
2018-12-27T11:05:35.517Z,971.78
2018-12-27T11:06:35.446Z,971.78
2018-12-27T11:07:35.375Z,971.77
2018-12-27T11:08:35.308Z,971.79
2018-12-27T11:09:35.237Z,971.80
2018-12-27T11:10:35.169Z,971.75
2018-12-27T11:11:35.103Z,971.73
2018-12-27T11:12:35.037Z,971.70
2018-12-27T11:13:34.963Z,971.69
2018-12-27T11:14:34.893Z,971.65
2018-12-27T11:15:34.825Z,971.58
2018-12-27T11:16:34.757Z,971.56
2018-12-27T11:17:34.690Z,971.58
2018-12-27T11:18:34.615Z,971.62
2018-12-27T11:19:34.552Z,971.61
2018-12-27T11:20:34.481Z,971.55
2018-12-27T11:21:34.413Z,971.52
2018-12-27T11:22:34.341Z,971.46
2018-12-27T11:23:34.273Z,971.50
2018-12-27T11:24:34.206Z,971.49
2018-12-27T11:25:34.137Z,971.48
2018-12-27T11:26:34.068Z,971.50
2018-12-27T11:27:34.003Z,971.50
2018-12-27T11:28:33.932Z,971.47
2018-12-27T11:29:33.861Z,971.45
2018-12-27T11:30:33.790Z,971.47
2018-12-27T11:31:33.723Z,971.42
2018-12-27T11:32:33.654Z,971.39
2018-12-27T11:33:33.586Z,971.36
2018-12-27T11:34:33.519Z,971.33
2018-12-27T11:35:33.449Z,971.25
2018-12-27T11:36:33.377Z,971.29
2018-12-27T11:37:33.315Z,971.30
2018-12-27T11:38:33.244Z,971.29
2018-12-27T11:39:33.177Z,971.33
2018-12-27T11:40:33.109Z,971.29
2018-12-27T11:41:33.037Z,971.31
2018-12-27T11:42:32.970Z,971.30
2018-12-27T11:43:32.899Z,971.25
2018-12-27T11:44:32.833Z,971.24
2018-12-27T11:45:32.763Z,971.20
2018-12-27T11:46:32.693Z,971.19
2018-12-27T11:47:32.623Z,971.22
2018-12-27T11:48:32.556Z,971.24
2018-12-27T11:49:32.486Z,971.23
2018-12-27T11:50:32.416Z,971.23
2018-12-27T11:51:32.351Z,971.23
2018-12-27T11:52:32.282Z,971.22
2018-12-27T11:53:32.215Z,971.23
2018-12-27T11:54:32.145Z,971.18
2018-12-27T11:55:32.081Z,971.22
2018-12-27T11:56:32.006Z,971.17
2018-12-27T11:57:31.940Z,971.16
2018-12-27T11:58:31.872Z,971.11
2018-12-27T11:59:31.801Z,971.08
2018-12-27T12:00:31.732Z,971.05
2018-12-27T12:01:31.668Z,971.08
2018-12-27T12:02:31.595Z,971.07
2018-12-27T12:03:31.525Z,971.06
2018-12-27T12:04:31.457Z,971.08
2018-12-27T12:05:31.389Z,971.06
2018-12-27T12:06:31.397Z,971.04
2018-12-27T12:07:31.250Z,971.05
2018-12-27T12:08:31.182Z,971.05
2018-12-27T12:09:31.114Z,971.06
2018-12-27T12:10:31.043Z,971.01
2018-12-27T12:11:30.974Z,971.01
2018-12-27T12:12:30.908Z,971.05
2018-12-27T12:13:30.839Z,971.05
2018-12-27T12:14:30.767Z,971.04
2018-12-27T12:15:30.700Z,971.07
2018-12-27T12:16:30.630Z,971.10
2018-12-27T12:17:30.562Z,971.08
2018-12-27T12:18:30.493Z,971.06
2018-12-27T12:19:30.447Z,971.02
2018-12-27T12:20:30.355Z,970.98
2018-12-27T12:21:30.289Z,970.93
2018-12-27T12:22:30.218Z,970.94
2018-12-27T12:23:30.147Z,970.93
2018-12-27T12:24:30.078Z,970.91
2018-12-27T12:25:30.010Z,970.94
2018-12-27T12:26:29.942Z,970.97
2018-12-27T12:27:29.892Z,970.95